createdAt,value
2022-10-20T00:01:18.494Z,9.93
2022-10-20T00:03:46.577Z,19.13
2022-10-20T00:06:15.340Z,11.52
2022-10-20T00:08:43.223Z,13.38
2022-10-20T00:11:11.145Z,11.73
2022-10-20T00:13:38.838Z,14.18
2022-10-20T00:16:06.350Z,13.38
2022-10-20T00:18:33.919Z,15.07
2022-10-20T00:21:01.243Z,15.07
2022-10-20T00:23:28.538Z,16.25
2022-10-20T00:26:04.846Z,11.75
2022-10-20T00:28:32.087Z,11.90
2022-10-20T00:30:59.359Z,14.65
2022-10-20T00:33:26.760Z,11.23
2022-10-20T00:35:54.073Z,11.88
2022-10-20T00:38:21.475Z,14.82
2022-10-20T00:40:48.724Z,11.77
2022-10-20T00:43:17.222Z,15.05
2022-10-20T00:45:45.887Z,12.73
2022-10-20T00:48:15.449Z,16.77
2022-10-20T00:50:44.420Z,14.60
2022-10-20T00:53:11.971Z,14.65
2022-10-20T00:55:41.662Z,13.65
2022-10-20T01:00:38.270Z,13.27
2022-10-20T01:03:07.074Z,13.15
2022-10-20T01:05:34.668Z,12.40
2022-10-20T01:08:01.927Z,12.80
2022-10-20T01:10:32.017Z,11.68
2022-10-20T01:13:22.031Z,14.65
2022-10-20T01:16:01.244Z,12.57
2022-10-20T01:18:44.032Z,13.70
2022-10-20T01:21:28.337Z,15.80
2022-10-20T01:24:24.872Z,13.80
2022-10-20T01:27:12.482Z,15.48
2022-10-20T01:29:55.062Z,16.38
2022-10-20T01:32:30.275Z,14.15
2022-10-20T01:35:18.542Z,15.05
2022-10-20T01:37:50.383Z,13.45
2022-10-20T01:40:21.762Z,16.17
2022-10-20T01:42:50.780Z,13.80
2022-10-20T01:45:19.077Z,14.52
2022-10-20T01:47:47.806Z,19.27
2022-10-20T01:50:15.741Z,16.23
2022-10-20T01:52:43.075Z,12.27
2022-10-20T01:55:12.704Z,15.07
2022-10-20T01:57:39.919Z,13.73
2022-10-20T02:00:08.907Z,15.65
2022-10-20T02:02:39.403Z,15.30
2022-10-20T02:05:25.788Z,15.60
2022-10-20T02:07:55.125Z,24.85
2022-10-20T02:10:25.206Z,15.75
2022-10-20T02:12:54.851Z,17.23
2022-10-20T02:17:52.732Z,15.60
2022-10-20T02:20:20.410Z,21.55
2022-10-20T02:22:48.524Z,16.70
2022-10-20T02:25:16.034Z,15.85
2022-10-20T02:27:47.010Z,14.40
2022-10-20T02:30:18.271Z,14.23
2022-10-20T02:32:49.643Z,18.23
2022-10-20T02:35:21.624Z,18.10
2022-10-20T02:37:48.985Z,19.25
2022-10-20T02:40:19.542Z,19.02
2022-10-20T02:42:46.979Z,22.33
2022-10-20T02:45:15.853Z,16.65
2022-10-20T02:47:43.152Z,18.15
2022-10-20T02:50:10.598Z,17.90
2022-10-20T02:52:38.344Z,18.63
2022-10-20T02:55:06.393Z,18.98
2022-10-20T02:57:33.945Z,20.75
2022-10-20T03:00:02.490Z,20.88
2022-10-20T03:02:29.780Z,18.33
2022-10-20T03:04:56.988Z,20.73
2022-10-20T03:07:24.356Z,16.20
2022-10-20T03:09:51.656Z,20.48
2022-10-20T03:12:18.989Z,20.95
2022-10-20T03:14:46.292Z,22.35
2022-10-20T03:17:13.587Z,18.70
2022-10-20T03:19:41.404Z,22.98
2022-10-20T03:22:11.060Z,21.13
2022-10-20T03:27:05.715Z,21.25
2022-10-20T03:29:33.029Z,21.85
2022-10-20T03:32:00.321Z,22.42
2022-10-20T03:34:27.632Z,25.40
2022-10-20T03:36:54.971Z,23.02
2022-10-20T03:39:22.320Z,21.60
2022-10-20T03:41:49.686Z,24.35
2022-10-20T03:44:17.020Z,21.70
2022-10-20T03:46:44.316Z,26.00
2022-10-20T03:49:11.585Z,27.70
2022-10-20T03:51:39.171Z,26.10
2022-10-20T03:54:06.495Z,35.38
2022-10-20T03:56:33.813Z,26.40
2022-10-20T03:59:01.167Z,27.95
2022-10-20T04:01:31.067Z,25.00
2022-10-20T04:03:58.531Z,25.55
2022-10-20T04:06:25.851Z,26.27
2022-10-20T04:08:53.144Z,23.52
2022-10-20T04:11:20.554Z,26.30
2022-10-20T04:13:47.865Z,30.23
2022-10-20T04:16:15.236Z,26.98
2022-10-20T04:18:42.521Z,27.63
2022-10-20T04:21:09.846Z,27.70
2022-10-20T04:23:37.108Z,33.78
2022-10-20T04:26:14.825Z,28.17
2022-10-20T04:28:42.255Z,26.25
2022-10-20T04:31:09.862Z,27.00
2022-10-20T04:33:37.381Z,28.33
2022-10-20T04:36:09.541Z,29.40
2022-10-20T04:38:36.935Z,29.70
2022-10-20T04:41:04.961Z,28.30
2022-10-20T04:43:35.376Z,27.63
2022-10-20T04:46:07.130Z,32.05
2022-10-20T04:48:36.565Z,26.45
2022-10-20T04:51:05.041Z,31.58
2022-10-20T04:53:32.449Z,28.25
2022-10-20T04:55:59.973Z,23.70
2022-10-20T04:58:27.337Z,31.40
2022-10-20T05:00:54.901Z,32.92
2022-10-20T05:03:22.209Z,26.10
2022-10-20T05:05:49.681Z,28.55
2022-10-20T05:08:16.975Z,27.38
2022-10-20T05:10:44.326Z,28.83
2022-10-20T05:13:11.746Z,27.45
2022-10-20T05:15:39.091Z,32.60
2022-10-20T05:18:06.391Z,29.67
2022-10-20T05:20:40.968Z,23.70
2022-10-20T05:23:13.304Z,28.13
2022-10-20T05:25:40.721Z,28.13
2022-10-20T05:28:08.045Z,33.13
2022-10-20T05:30:36.464Z,26.77
2022-10-20T05:33:04.412Z,28.45
2022-10-20T05:35:31.954Z,29.42
2022-10-20T05:37:59.199Z,31.92
2022-10-20T05:40:26.454Z,30.13
2022-10-20T05:42:53.763Z,31.83
2022-10-20T05:45:20.973Z,26.70
2022-10-20T05:47:48.397Z,26.35
2022-10-20T05:50:15.813Z,30.58
2022-10-20T05:52:43.108Z,28.08
2022-10-20T05:55:10.512Z,28.77
2022-10-20T05:57:37.908Z,25.02
2022-10-20T06:00:05.702Z,31.13
2022-10-20T06:02:38.999Z,25.95
2022-10-20T06:05:06.421Z,27.20
2022-10-20T06:07:33.869Z,33.03
2022-10-20T06:10:01.128Z,28.23
2022-10-20T06:12:28.554Z,27.42
2022-10-20T06:14:55.816Z,32.70
2022-10-20T06:17:23.817Z,33.33
2022-10-20T06:19:52.445Z,30.52
2022-10-20T06:22:19.784Z,32.65
2022-10-20T06:24:47.545Z,28.13
2022-10-20T06:27:14.936Z,28.33
2022-10-20T06:29:42.277Z,27.75
2022-10-20T06:32:09.542Z,25.58
2022-10-20T06:34:36.807Z,33.28
2022-10-20T06:37:04.101Z,25.55
2022-10-20T06:39:31.443Z,33.22
2022-10-20T06:41:58.677Z,29.73
2022-10-20T06:44:31.975Z,34.15
2022-10-20T06:46:59.168Z,33.33
2022-10-20T06:49:26.443Z,32.85
2022-10-20T06:51:53.692Z,32.13
2022-10-20T06:54:21.061Z,29.52
2022-10-20T06:56:48.338Z,32.65
2022-10-20T06:59:15.644Z,32.70
2022-10-20T07:01:42.940Z,28.77
2022-10-20T07:04:18.860Z,35.53
2022-10-20T07:06:46.795Z,34.33
2022-10-20T07:09:16.233Z,33.40
2022-10-20T07:11:43.535Z,30.92
2022-10-20T07:14:11.527Z,35.63
2022-10-20T07:16:39.133Z,31.05
2022-10-20T07:19:06.997Z,34.75
2022-10-20T07:21:39.204Z,29.13
2022-10-20T07:24:09.218Z,31.42
2022-10-20T07:26:37.856Z,29.52
2022-10-20T07:29:05.236Z,32.42
2022-10-20T07:31:34.003Z,36.75
2022-10-20T07:34:13.582Z,27.33
2022-10-20T07:36:49.973Z,27.85
2022-10-20T07:39:17.281Z,26.45
2022-10-20T07:41:47.198Z,26.23
2022-10-20T07:44:14.726Z,25.05
2022-10-20T07:46:42.007Z,28.02
2022-10-20T07:51:56.601Z,27.02
2022-10-20T07:54:23.919Z,23.08
2022-10-20T07:56:51.223Z,26.15
2022-10-20T07:59:19.298Z,26.98
2022-10-20T08:01:47.145Z,26.55
2022-10-20T08:04:16.774Z,26.27
2022-10-20T08:09:11.344Z,25.17
2022-10-20T08:11:38.696Z,27.02
2022-10-20T08:14:06.277Z,27.20
2022-10-20T08:16:36.173Z,27.98
2022-10-20T08:21:47.643Z,23.60
2022-10-20T08:24:15.169Z,22.80
2022-10-20T08:26:42.681Z,25.10
2022-10-20T08:29:10.216Z,25.67
2022-10-20T08:31:37.562Z,23.10
2022-10-20T08:34:05.796Z,26.38
2022-10-20T08:36:33.272Z,24.50
2022-10-20T08:39:03.618Z,19.60
2022-10-20T08:41:55.378Z,25.33
2022-10-20T08:44:28.000Z,23.65
2022-10-20T08:46:56.499Z,26.58
2022-10-20T08:49:25.763Z,26.80
2022-10-20T08:51:58.846Z,28.80
2022-10-20T08:54:26.397Z,25.35
2022-10-20T08:56:54.161Z,25.30
2022-10-20T08:59:24.613Z,27.20
2022-10-20T09:01:52.346Z,26.67
2022-10-20T09:04:22.056Z,26.15
2022-10-20T09:06:53.223Z,28.80
2022-10-20T09:09:24.014Z,29.55
2022-10-20T09:11:52.267Z,25.08
2022-10-20T09:14:20.413Z,26.63
2022-10-20T09:16:59.769Z,28.50
2022-10-20T09:19:28.515Z,24.55
2022-10-20T09:21:57.788Z,23.20
2022-10-20T09:24:27.399Z,26.23
2022-10-20T09:29:36.755Z,24.70
2022-10-20T09:32:22.445Z,25.55
2022-10-20T09:34:51.568Z,24.85
2022-10-20T09:37:21.785Z,24.95
2022-10-20T09:39:54.911Z,25.40
2022-10-20T09:42:25.432Z,26.30
2022-10-20T09:45:15.874Z,27.30
2022-10-20T09:47:45.119Z,28.30
2022-10-20T09:50:21.074Z,25.60
2022-10-20T09:52:48.873Z,30.10
2022-10-20T09:55:32.718Z,29.05
2022-10-20T09:58:02.133Z,27.63
2022-10-20T10:00:37.698Z,26.38
2022-10-20T10:03:24.023Z,26.08
2022-10-20T10:05:52.812Z,29.13
2022-10-20T10:08:21.095Z,30.17
2022-10-20T10:10:58.880Z,30.40
2022-10-20T10:13:27.600Z,30.48
2022-10-20T10:16:02.572Z,27.67
2022-10-20T10:18:33.290Z,29.27
2022-10-20T10:21:09.169Z,36.30
2022-10-20T10:23:51.981Z,31.35
2022-10-20T10:26:41.675Z,33.13
2022-10-20T10:29:24.346Z,30.80
2022-10-20T10:32:03.914Z,30.40
2022-10-20T10:36:59.885Z,29.90
2022-10-20T10:39:27.440Z,30.17
2022-10-20T10:42:00.813Z,33.38
2022-10-20T10:44:30.981Z,31.80
2022-10-20T10:47:05.394Z,32.53
2022-10-20T10:49:44.484Z,27.25
2022-10-20T10:52:30.704Z,31.58
2022-10-20T10:55:04.329Z,33.60
2022-10-20T10:57:36.691Z,34.25
2022-10-20T11:00:11.639Z,34.55
2022-10-20T11:02:51.258Z,30.85
2022-10-20T11:08:04.822Z,33.97
2022-10-20T11:10:40.773Z,34.22
2022-10-20T11:13:17.468Z,31.45
2022-10-20T11:15:47.729Z,35.65
2022-10-20T11:18:33.770Z,35.30
2022-10-20T11:21:01.104Z,32.88
2022-10-20T11:23:31.570Z,33.25
2022-10-20T11:26:02.107Z,38.53
2022-10-20T11:28:44.297Z,40.05
2022-10-20T11:31:34.912Z,39.47
2022-10-20T11:34:08.716Z,35.83
2022-10-20T11:36:46.209Z,41.15
2022-10-20T11:39:34.001Z,37.22
2022-10-20T11:42:05.039Z,39.85
2022-10-20T11:44:36.034Z,40.28
2022-10-20T11:47:11.493Z,36.35
2022-10-20T11:49:40.427Z,40.83
2022-10-20T11:52:33.302Z,39.58
2022-10-20T11:55:19.181Z,40.80
2022-10-20T11:58:01.271Z,44.65
2022-10-20T12:00:47.233Z,45.40
2022-10-20T12:03:17.655Z,39.08
2022-10-20T12:06:09.069Z,37.25
2022-10-20T12:08:56.529Z,45.72
2022-10-20T12:11:36.025Z,41.97
2022-10-20T12:14:16.489Z,38.95
2022-10-20T12:16:56.111Z,40.85
2022-10-20T12:19:23.533Z,40.05
2022-10-20T12:21:58.710Z,38.35
2022-10-20T12:24:30.802Z,44.30
2022-10-20T12:27:13.337Z,38.22
2022-10-20T12:29:43.698Z,38.95
2022-10-20T12:32:26.030Z,38.28
2022-10-20T12:35:00.643Z,41.33
2022-10-20T12:37:29.948Z,36.88
2022-10-20T12:40:00.393Z,44.55
2022-10-20T12:42:27.898Z,38.58
2022-10-20T12:44:55.604Z,38.38
2022-10-20T12:47:23.099Z,40.60
2022-10-20T12:50:17.344Z,40.50
2022-10-20T12:52:46.672Z,39.42
2022-10-20T12:55:14.045Z,45.10
2022-10-20T12:57:45.384Z,43.50
2022-10-20T13:00:22.528Z,42.22
2022-10-20T13:02:54.694Z,42.88
2022-10-20T13:05:25.044Z,41.25
2022-10-20T13:07:57.869Z,40.72
2022-10-20T13:10:31.212Z,47.15
2022-10-20T13:13:04.835Z,43.75
2022-10-20T13:15:39.877Z,50.47
2022-10-20T13:18:17.907Z,45.45
2022-10-20T13:20:45.468Z,46.33
2022-10-20T13:23:16.867Z,43.08
2022-10-20T13:25:52.074Z,50.95
2022-10-20T13:28:24.434Z,42.38
2022-10-20T13:31:07.142Z,44.00
2022-10-20T13:34:03.992Z,50.22
2022-10-20T13:36:35.295Z,48.33
2022-10-20T13:39:02.835Z,42.22
2022-10-20T13:41:37.663Z,50.83
2022-10-20T13:44:06.294Z,50.75
2022-10-20T13:47:01.312Z,49.80
2022-10-20T13:49:28.872Z,43.88
2022-10-20T13:52:06.044Z,43.85
2022-10-20T13:54:35.844Z,46.97
2022-10-20T13:57:04.397Z,54.88
2022-10-20T13:59:32.135Z,51.70
2022-10-20T14:02:01.505Z,50.55
2022-10-20T14:04:28.952Z,52.42
2022-10-20T14:06:57.079Z,52.17
2022-10-20T14:09:26.929Z,53.75
2022-10-20T14:12:06.409Z,55.88
2022-10-20T14:14:35.954Z,54.28
2022-10-20T14:19:35.066Z,60.10
2022-10-20T14:22:11.269Z,57.72
2022-10-20T14:24:46.052Z,54.97
2022-10-20T14:27:22.155Z,62.03
2022-10-20T14:29:50.121Z,56.78
2022-10-20T14:32:22.416Z,57.83
2022-10-20T14:34:55.952Z,62.05
2022-10-20T14:37:31.485Z,53.95
2022-10-20T14:40:01.093Z,57.72
2022-10-20T14:42:31.056Z,54.10
2022-10-20T14:44:59.326Z,57.60
2022-10-20T14:47:30.575Z,55.50
2022-10-20T14:49:59.861Z,57.25
2022-10-20T14:52:30.531Z,58.30
2022-10-20T14:54:58.153Z,51.60
2022-10-20T14:57:25.514Z,49.47
2022-10-20T14:59:59.220Z,53.42
2022-10-20T15:02:27.891Z,54.45
2022-10-20T15:04:57.599Z,52.87
2022-10-20T15:07:28.086Z,53.00
2022-10-20T15:10:05.019Z,49.03
2022-10-20T15:12:34.612Z,48.42
2022-10-20T15:15:19.569Z,50.35
2022-10-20T15:17:54.200Z,52.30
2022-10-20T15:20:37.585Z,52.78
2022-10-20T15:23:12.262Z,47.33
2022-10-20T15:28:56.720Z,51.92
2022-10-20T15:31:25.251Z,48.95
2022-10-20T15:33:53.311Z,50.73
2022-10-20T15:36:21.940Z,52.00
2022-10-20T15:38:50.261Z,48.15
2022-10-20T15:41:18.947Z,48.85
2022-10-20T15:43:48.078Z,47.42
2022-10-20T15:46:16.093Z,50.63
2022-10-20T15:48:44.006Z,51.00
2022-10-20T15:51:31.293Z,50.70
2022-10-20T15:53:59.181Z,44.58
2022-10-20T15:56:28.999Z,50.45
2022-10-20T15:59:00.481Z,45.60
2022-10-20T16:01:28.235Z,46.67
2022-10-20T16:03:55.944Z,47.03
2022-10-20T16:06:25.831Z,44.45
2022-10-20T16:08:54.302Z,42.58
2022-10-20T16:11:24.395Z,46.35
2022-10-20T16:13:51.739Z,46.65
2022-10-20T16:16:19.970Z,43.47
2022-10-20T16:18:47.329Z,44.80
2022-10-20T16:21:14.741Z,51.55
2022-10-20T16:23:44.750Z,50.42
2022-10-20T16:26:13.745Z,94.45
2022-10-20T16:28:41.358Z,50.53
2022-10-20T16:31:09.868Z,47.63
2022-10-20T16:33:37.472Z,68.00
2022-10-20T16:36:09.299Z,51.83
2022-10-20T16:38:40.046Z,47.55
2022-10-20T16:41:11.727Z,51.80
2022-10-20T16:43:44.706Z,50.13
2022-10-20T16:46:13.232Z,44.90
2022-10-20T16:48:42.769Z,46.35
2022-10-20T16:51:12.062Z,44.63
2022-10-20T16:53:39.843Z,43.88
2022-10-20T16:56:07.634Z,49.03
2022-10-20T16:58:35.150Z,45.97
2022-10-20T17:01:02.619Z,47.25
2022-10-20T17:03:30.697Z,43.47
2022-10-20T17:05:59.250Z,49.00
2022-10-20T17:08:28.151Z,41.40
2022-10-20T17:10:56.584Z,41.78
2022-10-20T17:13:24.060Z,42.95
2022-10-20T17:15:51.404Z,46.80
2022-10-20T17:18:19.115Z,45.63
2022-10-20T17:20:46.526Z,44.10
2022-10-20T17:23:13.910Z,48.10
2022-10-20T17:25:41.284Z,45.60
2022-10-20T17:28:08.599Z,44.08
2022-10-20T17:30:35.954Z,45.75
2022-10-20T17:33:03.296Z,48.20
2022-10-20T17:35:30.585Z,50.65
2022-10-20T17:38:00.922Z,45.38
2022-10-20T17:40:30.925Z,47.33
2022-10-20T17:42:58.464Z,52.45
2022-10-20T17:45:25.842Z,47.03
2022-10-20T17:53:45.687Z,51.40
2022-10-20T17:58:41.746Z,52.30
2022-10-20T18:01:23.517Z,52.88
2022-10-20T18:03:55.589Z,50.15
2022-10-20T18:06:23.581Z,54.17
2022-10-20T18:08:53.899Z,50.67
2022-10-20T18:11:22.744Z,57.05
2022-10-20T18:13:50.386Z,55.28
2022-10-20T18:16:18.717Z,53.03
2022-10-20T18:18:46.135Z,56.58
2022-10-20T18:21:18.191Z,50.60
2022-10-20T18:23:48.638Z,50.33
2022-10-20T18:26:17.413Z,53.10
2022-10-20T18:28:48.143Z,54.08
2022-10-20T18:31:20.554Z,56.28
2022-10-20T18:33:48.722Z,53.55
2022-10-20T18:36:16.908Z,52.13
2022-10-20T18:38:45.448Z,51.28
2022-10-20T18:41:14.922Z,54.55
2022-10-20T18:43:42.265Z,55.72
2022-10-20T18:46:10.569Z,52.50
2022-10-20T18:48:38.776Z,47.08
2022-10-20T18:51:06.828Z,50.38
2022-10-20T18:53:37.497Z,52.80
2022-10-20T18:56:06.275Z,49.85
2022-10-20T18:58:35.222Z,53.83
2022-10-20T19:01:04.080Z,49.70
2022-10-20T19:03:32.794Z,49.22
2022-10-20T19:06:04.775Z,47.92
2022-10-20T19:08:32.278Z,50.08
2022-10-20T19:11:00.591Z,53.60
2022-10-20T19:13:28.796Z,50.45
2022-10-20T19:15:56.757Z,51.10
2022-10-20T19:18:24.728Z,46.75
2022-10-20T19:21:01.330Z,50.67
2022-10-20T19:23:29.060Z,42.35
2022-10-20T19:26:02.853Z,50.17
2022-10-20T19:28:30.905Z,48.10
2022-10-20T19:30:58.328Z,44.75
2022-10-20T19:33:26.444Z,50.95
2022-10-20T19:35:53.940Z,44.60
2022-10-20T19:38:21.563Z,42.58
2022-10-20T19:40:51.138Z,42.22
2022-10-20T19:45:49.082Z,47.42
2022-10-20T19:48:17.322Z,44.88
2022-10-20T19:50:44.645Z,43.47
2022-10-20T19:53:12.158Z,40.95
2022-10-20T19:55:39.435Z,43.25
2022-10-20T19:58:06.986Z,45.30
2022-10-20T20:00:37.921Z,42.95
2022-10-20T20:03:05.660Z,40.30
2022-10-20T20:05:33.125Z,42.55
2022-10-20T20:08:00.606Z,42.47
2022-10-20T20:10:28.000Z,43.95
2022-10-20T20:12:55.384Z,40.72
2022-10-20T20:15:24.105Z,48.33
2022-10-20T20:17:52.595Z,43.63
2022-10-20T20:20:20.215Z,41.67
2022-10-20T20:22:47.672Z,48.70
2022-10-20T20:25:15.344Z,43.63
2022-10-20T20:27:42.982Z,48.22
2022-10-20T20:30:10.673Z,42.58
2022-10-20T20:32:39.355Z,43.35
2022-10-20T20:35:09.172Z,43.60
2022-10-20T20:37:36.793Z,55.70
2022-10-20T20:40:04.766Z,44.97
2022-10-20T20:42:32.279Z,43.55
2022-10-20T20:44:59.711Z,41.33
2022-10-20T20:47:27.473Z,41.75
2022-10-20T20:49:57.835Z,40.90
2022-10-20T20:52:26.144Z,42.03
2022-10-20T20:54:53.564Z,48.33
2022-10-20T20:57:20.906Z,75.30
2022-10-20T20:59:49.073Z,37.53
2022-10-20T21:02:17.117Z,42.42
2022-10-20T21:04:44.602Z,38.30
2022-10-20T21:07:12.630Z,37.67
2022-10-20T21:09:40.116Z,41.97
2022-10-20T21:12:07.612Z,41.35
2022-10-20T21:14:35.216Z,41.63
2022-10-20T21:17:02.732Z,37.58
2022-10-20T21:19:30.365Z,40.75
2022-10-20T21:21:58.088Z,39.63
2022-10-20T21:24:26.702Z,41.67
2022-10-20T21:26:54.525Z,42.97
2022-10-20T21:29:22.024Z,38.92
2022-10-20T21:31:49.447Z,40.45
2022-10-20T21:34:16.891Z,37.35
2022-10-20T21:36:47.176Z,40.83
2022-10-20T21:39:17.568Z,40.75
2022-10-20T21:41:45.745Z,37.08
2022-10-20T21:44:14.938Z,38.40
2022-10-20T21:46:47.589Z,34.88
2022-10-20T21:49:17.188Z,39.67
2022-10-20T21:51:46.245Z,37.58
2022-10-20T21:54:15.169Z,41.92
2022-10-20T21:56:44.511Z,43.83
2022-10-20T21:59:17.409Z,35.70
2022-10-20T22:01:44.972Z,35.42
2022-10-20T22:04:12.678Z,34.92
2022-10-20T22:06:40.572Z,36.05
2022-10-20T22:09:08.391Z,39.78
2022-10-20T22:11:37.512Z,43.33
2022-10-20T22:14:05.236Z,35.85
2022-10-20T22:16:34.260Z,37.78
2022-10-20T22:19:07.249Z,33.70
2022-10-20T22:21:38.545Z,34.72
2022-10-20T22:24:06.474Z,37.85
2022-10-20T22:26:33.973Z,34.50
2022-10-20T22:29:01.951Z,39.45
2022-10-20T22:31:29.539Z,33.63
2022-10-20T22:33:58.292Z,36.70
2022-10-20T22:36:26.116Z,36.15
2022-10-20T22:38:54.739Z,41.72
2022-10-20T22:41:22.179Z,33.97
2022-10-20T22:43:51.914Z,35.03
2022-10-20T22:46:19.676Z,31.73
2022-10-20T22:48:47.244Z,40.50
2022-10-20T22:51:17.688Z,40.95
2022-10-20T22:53:45.196Z,35.42
2022-10-20T22:56:13.806Z,34.42
2022-10-20T22:58:42.010Z,37.97
2022-10-20T23:01:12.770Z,35.10
2022-10-20T23:03:40.532Z,41.22
2022-10-20T23:06:15.342Z,42.08
2022-10-20T23:08:44.569Z,39.63
2022-10-20T23:11:13.325Z,35.38
2022-10-20T23:13:40.725Z,40.85
2022-10-20T23:16:08.321Z,38.83
2022-10-20T23:18:35.745Z,33.67
2022-10-20T23:21:03.082Z,40.38
2022-10-20T23:23:30.568Z,37.97
2022-10-20T23:25:59.681Z,34.63
2022-10-20T23:28:30.319Z,42.60
2022-10-20T23:31:08.320Z,41.63
2022-10-20T23:33:36.260Z,42.13
2022-10-20T23:36:03.801Z,43.20
2022-10-20T23:38:31.085Z,36.03
2022-10-20T23:40:58.457Z,46.10
2022-10-20T23:43:25.832Z,41.47
2022-10-20T23:45:53.120Z,35.40
2022-10-20T23:48:20.480Z,39.88
2022-10-20T23:50:47.829Z,36.97
2022-10-20T23:53:15.277Z,39.33
2022-10-20T23:55:43.169Z,40.10
2022-10-20T23:58:11.071Z,40.65
